Time;durP1;ratioP1;P1;durP2;ratioP2;P2;SDS_P1;SDS_P2;PMS_P1;PMS_P2;Temp;Humidity;BMP_temperature;BMP_pressure;BME280_temperature;BME280_humidity;BME280_pressure;Samples;Min_cycle;Max_cycle;Signal;HPM_P1;HPM_P2
2022/01/03 00:00:24;;;;;;;34.37;18.80;;;;;;;6.94;100.00;99878.69;5092793;28;20199;-75
2022/01/03 00:02:52;;;;;;;44.70;18.47;;;;;;;7.15;100.00;99907.38;5090108;28;20231;-76
2022/01/03 00:05:19;;;;;;;52.67;19.13;;;;;;;7.14;100.00;99905.69;5092117;28;20211;-76
2022/01/03 00:07:46;;;;;;;61.60;23.90;;;;;;;7.16;100.00;99901.44;5092835;28;21062;-75
2022/01/03 00:10:17;;;;;;;65.60;22.33;;;;;;;7.16;100.00;99895.50;5090855;28;20231;-75
2022/01/03 00:12:45;;;;;;;60.23;18.87;;;;;;;7.09;100.00;99876.84;5093510;28;20575;-76
2022/01/03 00:15:14;;;;;;;56.67;18.27;;;;;;;7.16;100.00;99878.50;5092902;28;20191;-75
2022/01/03 00:17:42;;;;;;;77.67;21.47;;;;;;;7.02;100.00;99862.47;5093497;28;20214;-75
2022/01/03 00:20:11;;;;;;;74.13;21.73;;;;;;;7.04;100.00;99858.22;5093019;28;20194;-75
2022/01/03 00:22:44;;;;;;;57.17;20.13;;;;;;;7.12;100.00;99864.06;5093125;28;20274;-75
2022/01/03 00:25:21;;;;;;;75.47;20.77;;;;;;;7.06;100.00;99846.28;5091491;28;20219;-75
2022/01/03 00:27:58;;;;;;;57.23;19.13;;;;;;;7.14;100.00;99848.78;5086344;28;20585;-76
2022/01/03 00:30:26;;;;;;;61.67;22.63;;;;;;;6.96;100.00;99816.63;5093021;28;20203;-76
2022/01/03 00:32:53;;;;;;;41.90;18.07;;;;;;;7.16;100.00;99850.44;5092970;28;20587;-76
2022/01/03 00:35:21;;;;;;;50.87;18.63;;;;;;;7.17;100.00;99831.72;5092166;28;20196;-75
2022/01/03 00:37:49;;;;;;;50.40;17.77;;;;;;;7.21;100.00;99833.38;5092643;28;20199;-75
2022/01/03 00:40:19;;;;;;;42.90;17.50;;;;;;;7.20;100.00;99829.16;5092834;28;20568;-75
2022/01/03 00:42:48;;;;;;;37.07;16.23;;;;;;;7.20;100.00;99829.16;5092439;28;20196;-75
2022/01/03 00:45:15;;;;;;;37.47;18.73;;;;;;;7.23;100.00;99829.13;5091878;28;20219;-76
2022/01/03 00:47:42;;;;;;;40.13;16.20;;;;;;;7.22;100.00;99832.53;5092073;28;20207;-75
2022/01/03 00:50:12;;;;;;;37.03;13.97;;;;;;;7.23;100.00;99828.28;5092059;28;20198;-76
2022/01/03 00:52:39;;;;;;;28.33;14.97;;;;;;;7.25;100.00;99829.94;5092505;28;20198;-76
2022/01/03 00:55:10;;;;;;;28.73;13.93;;;;;;;7.28;100.00;99829.91;5092454;28;20207;-75
2022/01/03 00:57:53;;;;;;;22.00;12.67;;;;;;;7.30;100.00;99828.19;5092447;28;20191;-75
2022/01/03 01:00:20;;;;;;;23.27;11.90;;;;;;;7.28;100.00;99824.81;5090833;28;20223;-76
2022/01/03 01:02:52;;;;;;;22.77;12.10;;;;;;;7.20;100.00;99829.16;5091020;28;20249;-76
2022/01/03 01:05:21;;;;;;;19.40;11.60;;;;;;;7.14;100.00;99811.34;5091471;28;20669;-75
2022/01/03 01:07:49;;;;;;;22.20;12.60;;;;;;;7.15;100.00;99825.81;5091566;28;20203;-75
2022/01/03 01:10:17;;;;;;;33.93;15.63;;;;;;;7.07;100.00;99830.16;5091793;28;20664;-75
2022/01/03 01:12:46;;;;;;;22.73;13.67;;;;;;;6.98;100.00;99814.09;5092212;28;20206;-75
2022/01/03 01:15:15;;;;;;;27.73;13.93;;;;;;;6.84;100.00;99816.75;5089584;28;20257;-75
2022/01/03 01:17:43;;;;;;;25.33;14.80;;;;;;;6.87;100.00;99803.97;5092064;28;20206;-75
2022/01/03 01:20:12;;;;;;;32.93;16.20;;;;;;;6.82;100.00;99777.69;5091150;28;20651;-75
2022/01/03 01:22:39;;;;;;;31.67;16.27;;;;;;;6.90;100.00;99781.00;5091496;28;20199;-75
2022/01/03 01:25:25;;;;;;;30.27;15.53;;;;;;;7.05;100.00;99791.06;5090239;28;20340;-75
2022/01/03 01:27:53;;;;;;;34.87;17.47;;;;;;;7.09;100.00;99787.63;5091545;28;20203;-75
2022/01/03 01:30:24;;;;;;;29.33;16.03;;;;;;;7.07;100.00;99773.22;5090694;28;20687;-75
2022/01/03 01:32:56;;;;;;;30.47;16.00;;;;;;;7.16;100.00;99784.16;5091207;28;20286;-75
2022/01/03 01:35:24;;;;;;;30.57;16.40;;;;;;;7.18;100.00;99774.78;5090865;28;20676;-75
2022/01/03 01:37:55;;;;;;;24.07;15.13;;;;;;;7.04;100.00;99756.25;5090880;28;20199;-76
2022/01/03 01:40:23;;;;;;;28.27;15.10;;;;;;;7.17;100.00;99762.88;5089798;28;20211;-76
2022/01/03 01:42:50;;;;;;;28.97;16.57;;;;;;;7.18;100.00;99767.13;5090916;28;20196;-76
2022/01/03 01:45:20;;;;;;;28.23;15.50;;;;;;;7.22;100.00;99766.25;5090395;28;20223;-75
2022/01/03 01:47:49;;;;;;;31.40;16.00;;;;;;;7.20;100.00;99769.69;5089640;28;20277;-75
2022/01/03 01:50:17;;;;;;;25.77;14.97;;;;;;;7.12;100.00;99774.84;5088846;28;20195;-76
2022/01/03 01:52:46;;;;;;;27.70;14.60;;;;;;;7.11;100.00;99757.03;5088893;28;20665;-76
2022/01/03 01:55:16;;;;;;;27.50;16.37;;;;;;;7.08;100.00;99742.59;5089402;28;20655;-76
2022/01/03 01:58:02;;;;;;;29.13;15.63;;;;;;;7.13;100.00;99743.41;5089108;28;20199;-76
2022/01/03 02:00:30;;;;;;;41.10;14.40;;;;;;;7.07;100.00;99730.72;5087918;28;20199;-76
2022/01/03 02:03:19;;;;;;;25.40;15.23;;;;;;;7.08;100.00;99734.94;5088186;28;20230;-75
2022/01/03 02:05:57;;;;;;;32.57;15.37;;;;;;;7.09;100.00;99730.69;5086018;28;20226;-75
2022/01/03 02:08:28;;;;;;;27.87;14.10;;;;;;;7.13;100.00;99723.00;5088585;28;20226;-76
2022/01/03 02:11:03;;;;;;;34.30;16.00;;;;;;;7.10;100.00;99723.03;5088471;28;20195;-76
2022/01/03 02:13:30;;;;;;;32.40;14.77;;;;;;;7.00;100.00;99706.16;5088364;28;20191;-75
2022/01/03 02:16:03;;;;;;;40.07;16.43;;;;;;;6.97;100.00;99711.28;5089316;28;20191;-76
2022/01/03 02:18:32;;;;;;;29.63;13.83;;;;;;;6.89;100.00;99702.88;5089700;28;20237;-75
2022/01/03 02:21:03;;;;;;;35.47;15.03;;;;;;;6.97;100.00;99706.19;5090826;28;20195;-75
2022/01/03 02:23:30;;;;;;;48.00;14.93;;;;;;;7.01;100.00;99702.72;5090084;28;20601;-76
2022/01/03 02:25:57;;;;;;;33.90;15.23;;;;;;;6.95;100.00;99684.97;5089915;28;20225;-76
2022/01/03 02:28:23;;;;;;;30.00;14.90;;;;;;;6.85;100.00;99691.00;5090837;28;20199;-76
2022/01/03 02:30:51;;;;;;;26.00;14.37;;;;;;;6.74;100.00;99678.41;5090803;28;20211;-76
2022/01/03 02:33:19;;;;;;;33.33;17.40;;;;;;;6.71;100.00;99682.69;5090815;28;20203;-76
2022/01/03 02:35:47;;;;;;;47.57;18.90;;;;;;;6.72;100.00;99694.56;5091447;28;20579;-76
2022/01/03 02:38:16;;;;;;;37.60;18.20;;;;;;;6.71;100.00;99697.97;5090156;28;20205;-76
2022/01/03 02:40:44;;;;;;;35.37;16.63;;;;;;;6.75;100.00;99712.38;5090605;28;20206;-76
2022/01/03 02:43:11;;;;;;;35.10;17.50;;;;;;;6.78;100.00;99700.44;5090118;28;20231;-76
2022/01/03 02:45:38;;;;;;;31.30;16.77;;;;;;;6.85;100.00;99701.19;5090039;28;20772;-76
2022/01/03 02:48:08;;;;;;;31.17;16.53;;;;;;;6.90;100.00;99704.56;5090103;28;20208;-76
2022/01/03 02:50:36;;;;;;;40.93;18.53;;;;;;;6.93;100.00;99701.97;5089787;28;20187;-76
2022/01/03 02:53:04;;;;;;;30.10;16.43;;;;;;;7.01;100.00;99695.09;5090411;28;20675;-76
2022/01/03 02:55:33;;;;;;;30.40;16.27;;;;;;;6.95;100.00;99679.84;5089510;28;20210;-76
2022/01/03 02:58:06;;;;;;;35.37;16.60;;;;;;;7.03;100.00;99693.38;5090146;28;20578;-76
2022/01/03 03:00:35;;;;;;;35.07;17.27;;;;;;;7.01;100.00;99696.81;5089748;28;20199;-76
2022/01/03 03:03:04;;;;;;;37.87;16.83;;;;;;;7.01;100.00;99709.56;5089853;28;20234;-76
2022/01/03 03:05:31;;;;;;;36.70;17.33;;;;;;;7.03;100.00;99706.13;5089508;28;20304;-76
2022/01/03 03:07:58;;;;;;;33.30;18.03;;;;;;;7.07;100.00;99686.53;5090127;28;20615;-76
2022/01/03 03:10:26;;;;;;;31.73;18.47;;;;;;;6.97;100.00;99678.16;5089465;28;20205;-76
2022/01/03 03:12:54;;;;;;;38.47;19.50;;;;;;;6.99;100.00;99683.22;5089791;28;20774;-76
2022/01/03 03:15:21;;;;;;;32.03;16.33;;;;;;;7.11;100.00;99694.13;5089398;28;20205;-76
2022/01/03 03:17:49;;;;;;;29.23;17.00;;;;;;;7.00;100.00;99701.06;5089727;28;20697;-76
2022/01/03 03:20:17;;;;;;;32.53;18.37;;;;;;;7.02;100.00;99704.44;5088769;28;20693;-76
2022/01/03 03:22:49;;;;;;;33.83;15.50;;;;;;;6.91;100.00;99685.88;5089510;28;20206;-76
2022/01/03 03:25:18;;;;;;;35.73;16.27;;;;;;;7.00;100.00;99702.75;5089873;28;20226;-76
2022/01/03 03:27:47;;;;;;;27.63;14.93;;;;;;;6.84;100.00;99684.25;5090186;28;20579;-76
2022/01/03 03:30:18;;;;;;;27.47;14.27;;;;;;;7.00;100.00;99706.16;5086310;28;20241;-76
2022/01/03 03:32:46;;;;;;;27.27;16.47;;;;;;;6.99;100.00;99704.47;5088561;28;20268;-76
2022/01/03 03:35:14;;;;;;;26.77;16.10;;;;;;;6.98;100.00;99702.75;5089177;28;20192;-76
2022/01/03 03:37:41;;;;;;;26.83;13.97;;;;;;;6.99;100.00;99689.16;5092060;28;20667;-76
2022/01/03 03:40:08;;;;;;;29.70;14.53;;;;;;;7.00;100.00;99685.78;5092558;28;20685;-76
2022/01/03 03:42:35;;;;;;;25.20;14.67;;;;;;;6.94;100.00;99675.66;5093327;28;20199;-75
2022/01/03 03:45:04;;;;;;;34.20;15.20;;;;;;;6.83;100.00;99682.56;5092923;28;20195;-76
2022/01/03 03:47:32;;;;;;;29.07;15.50;;;;;;;6.76;100.00;99665.63;5094018;28;20207;-76
2022/01/03 03:49:59;;;;;;;27.43;15.20;;;;;;;6.54;100.00;99665.00;5093955;28;20203;-76
2022/01/03 03:52:26;;;;;;;22.77;15.13;;;;;;;6.44;100.00;99660.00;5094245;28;20383;-76
2022/01/03 03:54:53;;;;;;;34.63;14.23;;;;;;;6.49;100.00;99666.78;5093281;28;20218;-76
2022/01/03 03:57:20;;;;;;;24.03;12.40;;;;;;;6.52;100.00;99660.81;5093088;28;20685;-76
2022/01/03 03:59:47;;;;;;;25.00;14.17;;;;;;;6.46;100.00;99645.59;5091504;28;20203;-76
2022/01/03 04:02:14;;;;;;;25.77;14.77;;;;;;;6.60;100.00;99648.81;5091588;28;20599;-76
2022/01/03 04:04:42;;;;;;;23.50;14.00;;;;;;;6.52;100.00;99620.91;5092026;28;20578;-71
2022/01/03 04:07:10;;;;;;;26.97;12.80;;;;;;;6.51;100.00;99629.41;5090714;28;20212;-71
2022/01/03 04:09:37;;;;;;;23.80;14.70;;;;;;;6.62;100.00;99660.72;5088662;28;20646;-71
2022/01/03 04:12:05;;;;;;;25.33;14.07;;;;;;;6.65;100.00;99653.03;5090337;28;20191;-71
2022/01/03 04:14:32;;;;;;;23.03;14.87;;;;;;;6.69;100.00;99638.53;5090740;28;20203;-71
2022/01/03 04:16:59;;;;;;;19.93;12.87;;;;;;;6.69;100.00;99633.44;5088723;28;20602;-71
2022/01/03 04:19:26;;;;;;;20.13;13.67;;;;;;;6.68;100.00;99627.53;5089847;28;20204;-72
2022/01/03 04:21:54;;;;;;;20.73;12.63;;;;;;;6.54;100.00;99615.78;5090844;28;20235;-71
2022/01/03 04:24:21;;;;;;;23.83;13.90;;;;;;;6.43;100.00;99620.16;5090387;28;20187;-71
2022/01/03 04:26:49;;;;;;;27.57;13.87;;;;;;;6.32;100.00;99623.66;5091721;28;20699;-72
2022/01/03 04:29:16;;;;;;;23.10;12.77;;;;;;;6.28;100.00;99624.53;5091865;28;20204;-72
2022/01/03 04:31:43;;;;;;;25.87;13.57;;;;;;;6.24;100.00;99625.41;5092459;28;20191;-71
2022/01/03 04:34:10;;;;;;;21.60;13.67;;;;;;;6.16;100.00;99619.56;5091607;28;20675;-72
2022/01/03 04:36:37;;;;;;;24.67;14.07;;;;;;;5.99;100.00;99608.66;5092147;28;20207;-71
2022/01/03 04:39:06;;;;;;;21.70;12.83;;;;;;;6.01;100.00;99612.03;5091882;28;20203;-72
2022/01/03 04:41:33;;;;;;;26.90;12.63;;;;;;;6.14;100.00;99610.25;5091568;28;20200;-71
2022/01/03 04:44:01;;;;;;;24.57;14.17;;;;;;;6.12;100.00;99599.22;5091871;28;20675;-72
2022/01/03 04:46:28;;;;;;;25.30;15.80;;;;;;;6.29;100.00;99627.91;5091669;28;20211;-72
2022/01/03 04:48:55;;;;;;;35.10;18.93;;;;;;;6.38;100.00;99627.81;5090723;28;20202;-72
2022/01/03 04:51:21;;;;;;;37.27;19.10;;;;;;;6.43;100.00;99625.25;5091343;28;20590;-71
2022/01/03 04:53:48;;;;;;;40.07;18.90;;;;;;;6.51;100.00;99616.66;5091529;28;20667;-72
2022/01/03 04:56:18;;;;;;;36.23;17.23;;;;;;;6.57;100.00;99611.50;5091211;28;20198;-71
2022/01/03 04:58:45;;;;;;;27.50;15.43;;;;;;;6.53;100.00;99603.91;5091997;28;20199;-71
2022/01/03 05:01:12;;;;;;;37.13;16.00;;;;;;;6.62;100.00;99616.56;5090983;28;20191;-71
2022/01/03 05:03:39;;;;;;;30.37;15.73;;;;;;;6.68;100.00;99606.28;5091561;28;20195;-71
2022/01/03 05:06:06;;;;;;;32.57;15.50;;;;;;;6.71;100.00;99608.81;5090538;28;20207;-72
2022/01/03 05:08:34;;;;;;;32.20;17.00;;;;;;;6.77;100.00;99621.47;5091030;28;20203;-72
2022/01/03 05:11:02;;;;;;;35.70;17.60;;;;;;;6.81;100.00;99623.97;5091368;28;20201;-72
2022/01/03 05:13:31;;;;;;;37.20;19.07;;;;;;;6.83;100.00;99644.34;5090429;28;20204;-71
2022/01/03 05:15:59;;;;;;;43.77;17.90;;;;;;;6.80;100.00;99652.00;5090499;28;20572;-71
2022/01/03 05:18:27;;;;;;;32.67;17.33;;;;;;;6.79;100.00;99640.97;5090711;28;20221;-71
2022/01/03 05:20:54;;;;;;;33.27;16.97;;;;;;;6.82;100.00;99625.66;5091200;28;20191;-71
2022/01/03 05:23:21;;;;;;;32.60;16.47;;;;;;;6.84;100.00;99634.13;5090524;28;20694;-71
2022/01/03 05:25:48;;;;;;;30.23;17.80;;;;;;;6.87;100.00;99633.25;5090872;28;20207;-72
2022/01/03 05:28:16;;;;;;;28.13;16.70;;;;;;;6.92;100.00;99635.72;5090612;28;20201;-71
2022/01/03 05:30:44;;;;;;;25.90;14.57;;;;;;;6.71;100.00;99617.31;5090429;28;20979;-71
2022/01/03 05:33:11;;;;;;;67.13;36.23;;;;;;;6.66;100.00;99624.13;5090554;28;20192;-71
2022/01/03 05:35:38;;;;;;;44.97;23.33;;;;;;;6.40;100.00;99587.91;5090901;28;20203;-71
2022/01/03 05:38:05;;;;;;;26.57;13.73;;;;;;;6.38;100.00;99596.44;5090515;28;20196;-71
2022/01/03 05:40:32;;;;;;;25.17;15.37;;;;;;;6.24;100.00;99616.91;5090516;28;20198;-71
2022/01/03 05:42:59;;;;;;;32.03;14.10;;;;;;;6.22;100.00;99624.59;5090434;28;20659;-71
2022/01/03 05:45:27;;;;;;;21.30;12.37;;;;;;;6.11;100.00;99613.66;5090903;28;20202;-71
2022/01/03 05:47:55;;;;;;;22.70;12.67;;;;;;;6.14;100.00;99618.69;5090442;28;20613;-72
2022/01/03 05:50:22;;;;;;;19.63;13.37;;;;;;;6.14;100.00;99615.34;5090369;28;20214;-72
2022/01/03 05:52:49;;;;;;;21.80;12.00;;;;;;;6.13;100.00;99629.75;5090488;28;20196;-72
2022/01/03 05:55:17;;;;;;;23.93;12.70;;;;;;;6.10;100.00;99613.69;5089984;28;20195;-72
2022/01/03 05:57:43;;;;;;;23.37;12.43;;;;;;;5.98;100.00;99612.06;5088942;28;20231;-71
2022/01/03 06:00:14;;;;;;;17.23;11.93;;;;;;;5.80;100.00;99602.00;5088440;28;20667;-72
2022/01/03 06:02:42;;;;;;;23.10;12.90;;;;;;;5.95;100.00;99627.34;5089711;28;20301;-72
2022/01/03 06:05:19;;;;;;;18.83;12.93;;;;;;;5.92;100.00;99617.19;5089463;28;20253;-71
2022/01/03 06:07:45;;;;;;;23.93;13.53;;;;;;;5.85;100.00;99602.81;5088980;28;20280;-72
2022/01/03 06:10:16;;;;;;;19.77;12.67;;;;;;;5.90;100.00;99608.75;5082237;28;20195;-71
2022/01/03 06:12:45;;;;;;;20.67;12.70;;;;;;;5.89;100.00;99611.28;5083648;28;20645;-72
2022/01/03 06:15:14;;;;;;;26.70;11.60;;;;;;;5.89;100.00;99606.19;5088880;28;20203;-71
2022/01/03 06:17:42;;;;;;;28.30;10.27;;;;;;;5.88;100.00;99590.09;5089518;28;20199;-71
2022/01/03 06:20:12;;;;;;;33.87;11.53;;;;;;;6.04;100.00;99601.81;5087690;28;20299;-71
2022/01/03 06:22:41;;;;;;;15.90;10.40;;;;;;;6.00;100.00;99595.09;5087831;28;20209;-71
2022/01/03 06:25:09;;;;;;;16.67;11.03;;;;;;;6.06;100.00;99595.03;5089325;28;20656;-71
2022/01/03 06:27:36;;;;;;;17.87;11.47;;;;;;;6.03;100.00;99601.84;5089691;28;20229;-72
2022/01/03 06:30:04;;;;;;;18.23;10.67;;;;;;;6.08;100.00;99598.41;5089487;28;20688;-71
2022/01/03 06:32:32;;;;;;;24.43;12.13;;;;;;;6.08;100.00;99598.41;5089976;28;20191;-72
2022/01/03 06:34:58;;;;;;;45.80;12.63;;;;;;;6.09;100.00;99597.56;5089197;28;20206;-71
2022/01/03 06:37:27;;;;;;;27.60;11.13;;;;;;;6.00;100.00;99584.91;5088930;28;20219;-61
2022/01/03 06:39:54;;;;;;;28.50;10.40;;;;;;;5.93;100.00;99590.91;5089034;28;20286;-60
2022/01/03 06:42:20;;;;;;;26.60;11.50;;;;;;;5.90;100.00;99583.31;5088550;28;20191;-63
2022/01/03 06:44:48;;;;;;;18.93;11.63;;;;;;;5.94;100.00;99584.97;5089088;28;20199;-63
2022/01/03 06:47:17;;;;;;;15.40;8.97;;;;;;;5.96;100.00;99583.25;5089014;28;20221;-63
2022/01/03 06:49:44;;;;;;;25.00;10.70;;;;;;;5.92;100.00;99571.41;5085194;28;20238;-63
2022/01/03 06:52:11;;;;;;;15.87;9.30;;;;;;;5.94;100.00;99576.50;5088890;28;20205;-62
2022/01/03 06:54:39;;;;;;;17.73;12.50;;;;;;;5.96;100.00;99601.06;5089375;28;20195;-63
2022/01/03 06:57:06;;;;;;;15.30;10.17;;;;;;;6.00;100.00;99604.44;5089291;28;20683;-63
2022/01/03 06:59:33;;;;;;;16.80;10.80;;;;;;;6.06;100.00;99607.75;5089184;28;20199;-63
2022/01/03 07:02:00;;;;;;;25.70;10.50;;;;;;;6.13;100.00;99617.03;5089181;28;20222;-63
2022/01/03 07:04:27;;;;;;;15.63;10.60;;;;;;;6.09;100.00;99599.25;5088723;28;20746;-63
2022/01/03 07:06:54;;;;;;;22.60;10.33;;;;;;;6.10;100.00;99606.88;5088292;28;20218;-63
2022/01/03 07:09:21;;;;;;;13.97;10.27;;;;;;;6.16;100.00;99605.97;5088396;28;20205;-63
2022/01/03 07:11:49;;;;;;;15.43;10.33;;;;;;;6.19;100.00;99601.72;5087700;28;20222;-63
2022/01/03 07:19:51;;;;;;;45.83;16.27;;;;;;;6.20;100.00;99607.66;5092362;28;20210;-64
2022/01/03 07:22:18;;;;;;;23.83;13.67;;;;;;;6.03;100.00;99574.72;5091686;28;20874;-64
2022/01/03 07:24:46;;;;;;;16.77;11.27;;;;;;;6.22;100.00;99616.09;5093188;28;20199;-63
2022/01/03 07:27:14;;;;;;;26.67;11.20;;;;;;;6.23;100.00;99602.53;5092964;28;20215;-63
2022/01/03 07:29:42;;;;;;;24.83;12.77;;;;;;;6.34;100.00;99601.53;5092986;28;20290;-62
2022/01/03 07:32:09;;;;;;;24.87;11.97;;;;;;;6.40;100.00;99599.81;5092508;28;20195;-63
2022/01/03 07:34:36;;;;;;;41.80;24.77;;;;;;;6.37;100.00;99599.81;5092669;28;20202;-63
2022/01/03 07:37:04;;;;;;;37.67;21.70;;;;;;;6.44;100.00;99598.91;5092150;28;20196;-63
2022/01/03 07:39:31;;;;;;;31.53;16.37;;;;;;;6.38;100.00;99582.00;5092835;28;20208;-73
2022/01/03 07:41:58;;;;;;;23.00;15.23;;;;;;;6.52;100.00;99594.59;5088903;28;20196;-76
2022/01/03 07:44:26;;;;;;;25.93;15.83;;;;;;;6.57;100.00;99597.91;5092391;28;20195;-72
2022/01/03 07:46:54;;;;;;;18.13;11.60;;;;;;;6.47;100.00;99565.75;5092211;28;20218;-73
2022/01/03 07:49:21;;;;;;;16.77;11.50;;;;;;;6.68;100.00;99596.09;5092179;28;20196;-75
2022/01/03 07:51:48;;;;;;;26.33;13.87;;;;;;;6.73;100.00;99594.34;5092352;28;20192;-72
2022/01/03 07:54:15;;;;;;;20.43;11.87;;;;;;;6.81;100.00;99592.56;5091446;28;20204;-74
2022/01/03 07:56:42;;;;;;;17.73;11.50;;;;;;;6.84;100.00;99598.47;5092470;28;20217;-75
2022/01/03 07:59:09;;;;;;;18.97;11.70;;;;;;;6.78;100.00;99577.31;5091821;28;20214;-72
2022/01/03 08:01:40;;;;;;;20.43;12.83;;;;;;;6.91;100.00;99598.38;5092488;28;20223;-72
2022/01/03 08:04:07;;;;;;;21.67;13.60;;;;;;;6.83;100.00;99595.91;5090899;28;20324;-70
2022/01/03 08:06:34;;;;;;;21.20;13.03;;;;;;;6.87;100.00;99597.56;5091687;28;20219;-70
2022/01/03 08:09:01;;;;;;;20.00;11.97;;;;;;;6.89;100.00;99595.84;5091532;28;20685;-71
2022/01/03 08:11:28;;;;;;;20.93;12.00;;;;;;;6.95;100.00;99585.56;5091384;28;20203;-71
2022/01/03 08:13:55;;;;;;;28.97;16.17;;;;;;;6.92;100.00;99590.69;5092078;28;20199;-71
2022/01/03 08:16:22;;;;;;;17.67;11.57;;;;;;;6.84;100.00;99592.53;5090013;28;20203;-70
2022/01/03 08:18:50;;;;;;;20.33;12.33;;;;;;;6.87;100.00;99587.38;5089534;28;20207;-71
2022/01/03 08:21:17;;;;;;;19.97;13.07;;;;;;;6.91;100.00;99578.84;5090998;28;20191;-71
2022/01/03 08:23:44;;;;;;;20.07;12.73;;;;;;;6.94;100.00;99578.81;5091563;28;20218;-71
2022/01/03 08:26:11;;;;;;;22.20;14.10;;;;;;;6.79;100.00;99549.25;5090707;28;20206;-70
2022/01/03 08:28:38;;;;;;;24.77;15.73;;;;;;;6.67;100.00;99538.38;5091647;28;20226;-71
2022/01/03 08:31:05;;;;;;;32.50;19.80;;;;;;;6.65;100.00;99535.84;5091322;28;20195;-71
2022/01/03 08:33:33;;;;;;;27.37;17.20;;;;;;;6.73;100.00;99556.97;5090646;28;20213;-71
2022/01/03 08:36:02;;;;;;;26.87;16.70;;;;;;;6.64;100.00;99559.63;5089595;28;20203;-70
2022/01/03 08:38:28;;;;;;;28.00;16.80;;;;;;;6.75;100.00;99562.88;5090317;28;20195;-71
2022/01/03 08:40:55;;;;;;;34.60;19.83;;;;;;;6.76;100.00;99531.44;5088654;28;20655;-71
2022/01/03 08:43:23;;;;;;;26.30;16.27;;;;;;;6.72;100.00;99532.34;5090411;28;20207;-71
2022/01/03 08:45:50;;;;;;;23.30;15.57;;;;;;;6.79;100.00;99549.25;5090674;28;20203;-71
2022/01/03 08:48:17;;;;;;;24.50;15.47;;;;;;;6.87;100.00;99549.16;5090556;28;20219;-69
2022/01/03 08:50:44;;;;;;;22.67;14.43;;;;;;;6.97;100.00;99537.13;5091013;28;20203;-69
2022/01/03 08:53:12;;;;;;;18.13;13.80;;;;;;;7.02;100.00;99533.66;5090119;28;20199;-70
2022/01/03 08:55:41;;;;;;;19.37;14.07;;;;;;;7.02;100.00;99538.75;5089009;28;20583;-70
2022/01/03 08:58:08;;;;;;;21.43;13.63;;;;;;;7.04;100.00;99549.78;5088935;28;20203;-70
2022/01/03 09:00:35;;;;;;;20.40;14.80;;;;;;;7.08;100.00;99545.47;5087911;28;20219;-70
2022/01/03 09:03:03;;;;;;;32.70;17.97;;;;;;;7.11;100.00;99530.97;5089148;28;20242;-69
2022/01/03 09:05:30;;;;;;;33.23;18.63;;;;;;;7.09;100.00;99525.06;5086779;28;20211;-70
2022/01/03 09:07:57;;;;;;;26.80;16.83;;;;;;;7.16;100.00;99524.13;5084408;28;20240;-72
2022/01/03 09:10:26;;;;;;;61.97;15.97;;;;;;;7.24;100.00;99511.25;5087607;28;20209;-70
2022/01/03 09:12:53;;;;;;;58.80;17.27;;;;;;;7.23;100.00;99500.22;5086412;28;20200;-70
2022/01/03 09:15:20;;;;;;;30.80;19.73;;;;;;;7.16;100.00;99493.53;5086665;28;20204;-70
2022/01/03 09:17:48;;;;;;;33.37;17.53;;;;;;;7.22;100.00;99487.47;5088961;28;20283;-70
2022/01/03 09:20:15;;;;;;;39.37;24.97;;;;;;;7.27;100.00;99496.75;5089009;28;20257;-70
2022/01/03 09:22:45;;;;;;;26.20;16.40;;;;;;;7.37;100.00;99498.28;5090601;28;20203;-70
2022/01/03 09:30:42;;;;;;;42.53;28.43;;;;;;;7.56;100.00;99482.69;5088990;28;20207;-69
2022/01/03 09:33:09;;;;;;;37.67;24.60;;;;;;;7.48;100.00;99457.31;5086929;28;20209;-69
2022/01/03 09:35:37;;;;;;;44.30;28.17;;;;;;;7.69;100.00;99461.22;5088698;28;20206;-69
2022/01/03 09:38:03;;;;;;;37.60;23.77;;;;;;;7.75;100.00;99456.00;5089427;28;20282;-70
2022/01/03 09:40:31;;;;;;;37.33;24.37;;;;;;;7.81;100.00;99453.34;5088786;28;20659;-73
2022/01/03 09:43:01;;;;;;;51.60;33.43;;;;;;;7.90;100.00;99438.69;5089882;28;20203;-70
2022/01/03 09:45:32;;;;;;;42.33;26.33;;;;;;;8.13;100.00;99442.50;5088381;28;20203;-70
2022/01/03 09:48:00;;;;;;;27.63;18.03;;;;;;;8.19;100.00;99422.81;5088340;28;20690;-69
2022/01/03 09:50:27;;;;;;;28.27;17.37;;;;;;;8.19;100.00;99430.47;5089594;28;20214;-70
2022/01/03 09:52:55;;;;;;;56.80;34.27;;;;;;;8.26;100.00;99424.38;5089515;28;20230;-73
2022/01/03 09:55:23;;;;;;;33.40;21.40;;;;;;;8.44;100.00;99423.16;5089195;28;20258;-70
2022/01/03 09:57:50;;;;;;;43.67;25.80;;;;;;;8.57;100.00;99410.97;5089147;28;20678;-70
2022/01/03 10:00:22;;;;;;;29.90;16.23;;;;;;;8.77;100.00;99398.59;5088056;28;20579;-70
2022/01/03 10:02:49;;;;;;;45.13;25.00;;;;;;;8.89;100.00;99398.28;5088588;28;20226;-70
2022/01/03 10:05:16;;;;;;;46.87;26.73;;;;;;;8.95;100.00;99373.44;5088295;28;20282;-70
2022/01/03 10:07:43;;;;;;;60.53;33.10;;;;;;;9.13;100.00;99391.78;5089109;28;20693;-70
2022/01/03 10:10:11;;;;;;;49.77;28.60;;;;;;;9.09;100.00;99385.03;5086686;28;20582;-70
2022/01/03 10:12:39;;;;;;;32.27;18.40;;;;;;;9.19;100.00;99387.34;5088393;28;20199;-71
2022/01/03 10:15:08;;;;;;;43.40;27.83;;;;;;;9.21;100.00;99375.34;5089175;28;20209;-70
2022/01/03 10:17:38;;;;;;;45.07;28.27;;;;;;;9.27;100.00;99375.19;5087916;28;20195;-70
2022/01/03 10:20:06;;;;;;;34.27;22.10;;;;;;;9.29;100.00;99362.38;5088432;28;20191;-70
2022/01/03 10:22:35;;;;;;;29.60;19.73;;;;;;;9.41;100.00;99347.53;5086389;28;20214;-70
2022/01/03 10:25:10;;;;;;;30.83;18.67;;;;;;;9.54;100.00;99336.97;5088105;28;20291;-70
2022/01/03 10:27:50;;;;;;;25.93;18.60;;;;;;;9.58;100.00;99324.06;5088392;28;20222;-70
2022/01/03 10:30:32;;;;;;;21.27;17.07;;;;;;;9.79;100.00;99343.13;5088298;28;20211;-68
2022/01/03 10:33:02;;;;;;;32.30;18.13;;;;;;;9.93;100.00;99343.56;5088584;28;20656;-69
2022/01/03 10:35:36;;;;;;;61.33;30.10;;;;;;;10.08;100.00;99345.66;5088260;28;20210;-69
2022/01/03 10:38:03;;;;;;;36.67;21.30;;;;;;;10.14;100.00;99335.31;5087277;28;20200;-69
2022/01/03 10:40:31;;;;;;;31.07;20.77;;;;;;;10.18;100.00;99331.75;5087597;28;20203;-70
2022/01/03 10:43:11;;;;;;;23.97;17.27;;;;;;;10.16;100.00;99323.28;5087919;28;20205;-70
2022/01/03 10:45:39;;;;;;;26.13;19.27;;;;;;;10.35;100.00;99324.41;5088766;28;20202;-70
2022/01/03 10:48:27;;;;;;;24.40;16.67;;;;;;;10.36;100.00;99299.63;5091985;28;20340;-70
2022/01/03 10:50:56;;;;;;;21.63;15.63;;;;;;;10.57;100.00;99303.22;5089848;28;20218;-70
2022/01/03 10:53:33;;;;;;;21.00;14.73;;;;;;;10.67;100.00;99295.19;5088927;28;20195;-70
2022/01/03 10:56:00;;;;;;;33.00;18.27;;;;;;;10.82;100.00;99296.44;5089529;28;20234;-69
2022/01/03 10:58:33;;;;;;;26.80;16.33;;;;;;;10.90;100.00;99268.81;5090230;28;20191;-70
2022/01/03 11:01:00;;;;;;;18.20;14.57;;;;;;;11.22;100.00;99276.25;5091560;28;20257;-70
2022/01/03 11:03:32;;;;;;;18.03;11.53;;;;;;;11.51;100.00;99281.19;5091445;28;20227;-70
2022/01/03 11:06:12;;;;;;;16.60;11.67;;;;;;;11.71;100.00;99271.97;5091798;28;20298;-70
2022/01/03 11:11:35;;;;;;;11.83;10.23;;;;;;;12.28;100.00;99264.59;5091852;28;20260;-70
2022/01/03 11:14:02;;;;;;;13.30;11.27;;;;;;;12.39;100.00;99247.03;5090797;28;20194;-70
2022/01/03 11:16:32;;;;;;;11.23;10.07;;;;;;;12.61;100.00;99255.56;5092240;28;20574;-71
2022/01/03 11:19:00;;;;;;;16.70;10.97;;;;;;;12.79;100.00;99248.84;5092625;28;20722;-72
2022/01/03 11:21:28;;;;;;;18.13;11.50;;;;;;;12.95;100.00;99238.72;5090250;28;20203;-72
2022/01/03 11:24:06;;;;;;;15.13;11.77;;;;;;;12.90;100.00;99187.47;5091712;28;20200;-73
2022/01/03 11:26:34;;;;;;;45.57;30.30;;;;;;;13.17;100.00;99221.50;5091468;28;20233;-72
2022/01/03 11:29:02;;;;;;;103.40;59.07;;;;;;;13.31;100.00;99218.34;5091622;28;20230;-71
2022/01/03 11:31:33;;;;;;;54.57;33.83;;;;;;;13.31;100.00;99208.84;5090378;28;20201;-71
2022/01/03 11:34:02;;;;;;;44.73;28.67;;;;;;;13.38;100.00;99199.09;5089442;28;20234;-72
2022/01/03 11:36:28;;;;;;;38.40;25.07;;;;;;;13.42;99.82;99200.66;5087983;28;20207;-71